Time;durP1;ratioP1;P1;durP2;ratioP2;P2;SDS_P1;SDS_P2;PMS_P1;PMS_P2;Temp;Humidity;BMP_temperature;BMP_pressure;BME280_temperature;BME280_humidity;BME280_pressure;Samples;Min_cycle;Max_cycle;Signal;HPM_P1;HPM_P2
2024/04/20 00:07:15;;;;;;;7.18;1.88;;;;;;;;;;22647673;26;20034;-45
2024/04/20 00:17:16;;;;;;;5.20;2.40;;;;;;;;;;22638647;26;21150;-44
2024/04/20 00:27:18;;;;;;;8.65;2.13;;;;;;;;;;22630164;26;20013;-43
2024/04/20 00:37:20;;;;;;;7.82;2.38;;;;;;;;;;22648457;26;19999;-49
2024/04/20 00:47:22;;;;;;;6.05;1.42;;;;;;;;;;22644432;26;20135;-44
2024/04/20 00:57:24;;;;;;;5.78;1.38;;;;;;;;;;22631104;26;20056;-44
2024/04/20 01:07:26;;;;;;;5.03;1.40;;;;;;;;;;22646807;26;20321;-43
2024/04/20 01:17:27;;;;;;;8.15;1.10;;;;;;;;;;22656911;26;20329;-48
2024/04/20 01:27:29;;;;;;;11.07;3.08;;;;;;;;;;22640524;26;20417;-43
2024/04/20 01:37:30;;;;;;;8.77;2.00;;;;;;;;;;22661942;26;20349;-45
2024/04/20 01:47:32;;;;;;;6.97;2.15;;;;;;;;;;22678656;26;20348;-44
2024/04/20 01:57:34;;;;;;;9.00;2.58;;;;;;;;;;22664722;26;20002;-44
2024/04/20 02:07:35;;;;;;;4.25;1.98;;;;;;;;;;22655857;26;20129;-44
2024/04/20 02:17:38;;;;;;;7.57;2.55;;;;;;;;;;22652268;26;19998;-45
2024/04/20 02:27:40;;;;;;;6.00;2.20;;;;;;;;;;22643163;26;20002;-46
2024/04/20 02:37:41;;;;;;;7.07;2.63;;;;;;;;;;22654195;26;20001;-45
2024/04/20 02:47:43;;;;;;;7.35;2.58;;;;;;;;;;22667680;26;22458;-45
2024/04/20 02:57:46;;;;;;;7.47;2.60;;;;;;;;;;22653049;26;20013;-44
2024/04/20 03:07:48;;;;;;;7.72;2.05;;;;;;;;;;22672067;26;20034;-44
2024/04/20 03:17:50;;;;;;;5.20;2.28;;;;;;;;;;22624381;26;20009;-44
2024/04/20 03:27:51;;;;;;;4.68;1.80;;;;;;;;;;22651645;26;20074;-44
2024/04/20 03:37:53;;;;;;;6.97;2.17;;;;;;;;;;22658209;26;20002;-45
2024/04/20 03:47:54;;;;;;;6.38;2.30;;;;;;;;;;22625454;26;20013;-45
2024/04/20 03:57:56;;;;;;;5.95;2.53;;;;;;;;;;22633273;26;20013;-43
2024/04/20 04:07:58;;;;;;;7.18;2.35;;;;;;;;;;22641683;26;19998;-43
2024/04/20 04:18:00;;;;;;;8.35;2.60;;;;;;;;;;22663355;26;20002;-44
2024/04/20 04:28:01;;;;;;;6.82;2.00;;;;;;;;;;22693751;26;19998;-44
2024/04/20 04:38:04;;;;;;;6.57;2.10;;;;;;;;;;22640137;26;20002;-43
2024/04/20 04:48:05;;;;;;;5.75;2.15;;;;;;;;;;22686862;26;20017;-44
2024/04/20 04:58:07;;;;;;;4.97;2.22;;;;;;;;;;22696011;26;20006;-44
2024/04/20 05:08:09;;;;;;;6.82;2.95;;;;;;;;;;22697042;26;20286;-44
2024/04/20 05:18:11;;;;;;;3.97;2.35;;;;;;;;;;22657418;26;20744;-43
2024/04/20 05:28:12;;;;;;;5.35;2.58;;;;;;;;;;22669563;26;20034;-43
2024/04/20 05:38:15;;;;;;;4.57;2.13;;;;;;;;;;22573266;26;20543;-44
2024/04/20 05:48:17;;;;;;;7.45;2.60;;;;;;;;;;22700283;26;20017;-45
2024/04/20 05:58:18;;;;;;;6.30;2.42;;;;;;;;;;22699192;26;20128;-43
2024/04/20 06:08:20;;;;;;;8.23;3.58;;;;;;;;;;22665982;26;20418;-46
2024/04/20 06:18:22;;;;;;;5.47;3.08;;;;;;;;;;22710200;26;20002;-44
2024/04/20 06:28:23;;;;;;;12.18;3.10;;;;;;;;;;22711136;26;20034;-44
2024/04/20 06:38:25;;;;;;;9.38;3.08;;;;;;;;;;22636441;26;20078;-44
2024/04/20 06:48:28;;;;;;;6.28;2.47;;;;;;;;;;22651023;26;20472;-45
2024/04/20 06:58:31;;;;;;;8.10;3.08;;;;;;;;;;22694644;26;20344;-46
2024/04/20 07:08:33;;;;;;;12.23;3.55;;;;;;;;;;22707267;26;20052;-44
2024/04/20 07:18:35;;;;;;;6.90;3.38;;;;;;;;;;22698082;26;20013;-44
2024/04/20 07:28:36;;;;;;;8.05;3.00;;;;;;;;;;22708162;26;19998;-46
2024/04/20 07:38:38;;;;;;;6.20;1.95;;;;;;;;;;22687025;26;20398;-54
2024/04/20 07:48:41;;;;;;;4.15;2.08;;;;;;;;;;22707387;26;20023;-49
2024/04/20 07:58:42;;;;;;;5.10;2.10;;;;;;;;;;22682732;26;20457;-53
2024/04/20 08:08:44;;;;;;;5.40;2.33;;;;;;;;;;22707967;26;20006;-54
2024/04/20 08:18:46;;;;;;;3.60;1.50;;;;;;;;;;22707855;26;20062;-53
2024/04/20 08:28:48;;;;;;;5.18;1.33;;;;;;;;;;22706397;26;20002;-53
2024/04/20 08:38:51;;;;;;;2.50;1.03;;;;;;;;;;22701832;26;20005;-53
2024/04/20 08:48:54;;;;;;;6.22;0.93;;;;;;;;;;22701040;26;20337;-51
2024/04/20 08:58:56;;;;;;;10.37;2.00;;;;;;;;;;22687386;26;20437;-50
2024/04/20 09:08:59;;;;;;;5.07;1.00;;;;;;;;;;22665452;26;20144;-51
2024/04/20 09:19:02;;;;;;;7.73;1.30;;;;;;;;;;22673499;26;20009;-52
2024/04/20 09:29:05;;;;;;;3.90;1.38;;;;;;;;;;22697526;26;20010;-52
2024/04/20 09:39:07;;;;;;;4.67;0.90;;;;;;;;;;22695322;26;20006;-52
2024/04/20 09:49:10;;;;;;;1.70;1.00;;;;;;;;;;22668905;26;20017;-55
2024/04/20 09:59:12;;;;;;;2.47;0.77;;;;;;;;;;22717381;26;20034;-52
2024/04/20 10:09:15;;;;;;;2.40;0.80;;;;;;;;;;22685484;26;20449;-54
2024/04/20 10:19:17;;;;;;;3.47;0.95;;;;;;;;;;22676487;26;20006;-52
2024/04/20 10:29:23;;;;;;;3.20;0.90;;;;;;;;;;22712634;26;20410;-52
2024/04/20 10:39:28;;;;;;;5.32;0.88;;;;;;;;;;22714342;26;20002;-52
2024/04/20 10:49:29;;;;;;;3.88;1.10;;;;;;;;;;22713858;26;20406;-52
2024/04/20 10:59:32;;;;;;;2.50;0.90;;;;;;;;;;22714079;26;19998;-52
2024/04/20 11:09:35;;;;;;;6.90;1.17;;;;;;;;;;22713974;26;20602;-52
2024/04/20 11:19:40;;;;;;;5.07;0.60;;;;;;;;;;22705806;26;20337;-53
2024/04/20 11:29:43;;;;;;;2.88;0.85;;;;;;;;;;22710900;26;20051;-53
2024/04/20 11:39:45;;;;;;;2.42;0.60;;;;;;;;;;22709411;26;20017;-53
2024/04/20 11:49:53;;;;;;;3.92;0.60;;;;;;;;;;22707028;26;20489;-53
2024/04/20 11:59:54;;;;;;;4.45;0.73;;;;;;;;;;22707518;26;20046;-52
2024/04/20 12:09:56;;;;;;;3.47;0.85;;;;;;;;;;22708749;26;20006;-51
2024/04/20 12:19:58;;;;;;;4.85;0.80;;;;;;;;;;22708989;26;20006;-51
2024/04/20 12:30:00;;;;;;;2.50;0.90;;;;;;;;;;22709465;26;20341;-51
2024/04/20 12:40:02;;;;;;;3.38;0.60;;;;;;;;;;22707015;26;20010;-53
2024/04/20 12:50:04;;;;;;;3.28;0.90;;;;;;;;;;22706856;26;20082;-53
2024/04/20 13:00:06;;;;;;;3.17;0.60;;;;;;;;;;22705707;26;19998;-52
2024/04/20 13:10:09;;;;;;;1.75;0.70;;;;;;;;;;22705247;26;20454;-52
2024/04/20 13:20:12;;;;;;;2.40;0.70;;;;;;;;;;22679175;26;19998;-52
2024/04/20 13:30:13;;;;;;;2.78;0.50;;;;;;;;;;22717219;26;20034;-53
2024/04/20 13:40:15;;;;;;;1.45;0.40;;;;;;;;;;22716172;26;20016;-52
2024/04/20 13:50:17;;;;;;;3.53;0.52;;;;;;;;;;22708182;26;20444;-52
2024/04/20 14:00:18;;;;;;;2.95;1.15;;;;;;;;;;22715892;26;20021;-54
2024/04/20 14:10:20;;;;;;;4.45;0.68;;;;;;;;;;22674767;26;20002;-54
2024/04/20 14:20:21;;;;;;;0.75;0.30;;;;;;;;;;22716280;26;20028;-53
2024/04/20 14:30:24;;;;;;;2.20;0.50;;;;;;;;;;22707985;26;20426;-53
2024/04/20 14:40:26;;;;;;;1.98;0.57;;;;;;;;;;22714697;26;20083;-53
2024/04/20 14:50:27;;;;;;;2.22;0.50;;;;;;;;;;22714803;26;20071;-52
2024/04/20 15:00:29;;;;;;;1.08;0.30;;;;;;;;;;22707963;26;20013;-54
2024/04/20 15:10:31;;;;;;;1.05;0.10;;;;;;;;;;22671144;26;20021;-54
2024/04/20 15:20:33;;;;;;;1.75;0.20;;;;;;;;;;22667485;26;20337;-53
2024/04/20 15:30:35;;;;;;;2.08;0.30;;;;;;;;;;22710156;26;20025;-53
2024/04/20 15:40:36;;;;;;;1.55;0.22;;;;;;;;;;22670269;26;19998;-52
2024/04/20 15:50:38;;;;;;;1.85;0.17;;;;;;;;;;22700362;26;20013;-53
2024/04/20 16:00:39;;;;;;;2.03;1.20;;;;;;;;;;22704233;26;20014;-53
2024/04/20 16:10:41;;;;;;;1.23;0.20;;;;;;;;;;22697469;26;20013;-52
2024/04/20 16:20:53;;;;;;;5.18;3.13;;;;;;;;;;22702733;26;20018;-51
2024/04/20 16:30:56;;;;;;;2.30;0.77;;;;;;;;;;22705883;26;20002;-51
2024/04/20 16:40:58;;;;;;;1.00;0.20;;;;;;;;;;22705178;26;20394;-53
2024/04/20 16:51:01;;;;;;;1.85;1.20;;;;;;;;;;22682700;26;20030;-52
2024/04/20 17:01:03;;;;;;;2.13;0.60;;;;;;;;;;22553216;26;20003;-52
2024/04/20 17:11:05;;;;;;;2.80;1.60;;;;;;;;;;22553080;26;20099;-51
2024/04/20 17:21:08;;;;;;;1.85;0.38;;;;;;;;;;22632575;26;20071;-51
2024/04/20 17:31:14;;;;;;;1.83;0.30;;;;;;;;;;22694454;26;20009;-51
2024/04/20 17:41:17;;;;;;;2.22;1.38;;;;;;;;;;22701742;26;20002;-51
2024/04/20 17:51:19;;;;;;;2.30;0.40;;;;;;;;;;22701099;26;20039;-51
2024/04/20 18:01:20;;;;;;;3.90;0.50;;;;;;;;;;22700508;26;20498;-51
2024/04/20 18:11:22;;;;;;;4.88;1.17;;;;;;;;;;22664345;26;19998;-52
2024/04/20 18:21:24;;;;;;;4.38;0.80;;;;;;;;;;22713479;26;20010;-51
2024/04/20 18:31:25;;;;;;;4.50;0.70;;;;;;;;;;22713044;26;20002;-51
2024/04/20 18:41:27;;;;;;;3.08;0.60;;;;;;;;;;22675209;26;20007;-52
2024/04/20 18:51:28;;;;;;;2.15;0.50;;;;;;;;;;22561412;26;20014;-51
2024/04/20 19:01:31;;;;;;;2.28;0.73;;;;;;;;;;22561009;26;20011;-51
2024/04/20 19:11:33;;;;;;;2.28;0.70;;;;;;;;;;22557946;26;20051;-50
2024/04/20 19:21:34;;;;;;;4.03;1.10;;;;;;;;;;22516667;26;19999;-51
2024/04/20 19:31:36;;;;;;;2.38;0.60;;;;;;;;;;22556252;26;20017;-50
2024/04/20 19:41:40;;;;;;;4.18;1.33;;;;;;;;;;22597988;26;20002;-50
2024/04/20 19:51:42;;;;;;;4.72;1.10;;;;;;;;;;22708931;26;20330;-51
2024/04/20 20:01:43;;;;;;;4.00;0.80;;;;;;;;;;22596927;26;20010;-51
2024/04/20 20:11:45;;;;;;;2.95;0.60;;;;;;;;;;22556138;26;20427;-51
2024/04/20 20:21:47;;;;;;;3.22;0.80;;;;;;;;;;22633162;26;20455;-51
2024/04/20 20:31:50;;;;;;;2.78;1.00;;;;;;;;;;22704224;26;20425;-50
2024/04/20 20:41:52;;;;;;;4.93;0.63;;;;;;;;;;22628531;26;20349;-51
2024/04/20 20:51:54;;;;;;;6.10;0.57;;;;;;;;;;22551833;26;20406;-51
2024/04/20 21:01:55;;;;;;;4.55;0.73;;;;;;;;;;22549993;26;20002;-50
2024/04/20 21:11:57;;;;;;;2.10;0.50;;;;;;;;;;22551662;26;20013;-51
2024/04/20 21:21:58;;;;;;;4.55;0.98;;;;;;;;;;22533231;26;20087;-51
2024/04/20 21:32:00;;;;;;;2.42;0.50;;;;;;;;;;22534875;26;20041;-49
2024/04/20 21:42:03;;;;;;;2.63;0.63;;;;;;;;;;22592846;26;20034;-52
2024/04/20 21:52:04;;;;;;;4.75;0.80;;;;;;;;;;22713059;26;20020;-50
2024/04/20 22:02:06;;;;;;;2.97;0.80;;;;;;;;;;22705032;26;19998;-49
2024/04/20 22:12:08;;;;;;;1.80;0.50;;;;;;;;;;22702810;26;20009;-45
2024/04/20 22:22:10;;;;;;;3.20;0.60;;;;;;;;;;22705814;26;20010;-45
2024/04/20 22:32:12;;;;;;;5.70;0.70;;;;;;;;;;22705562;26;20417;-45
2024/04/20 22:42:14;;;;;;;4.20;0.70;;;;;;;;;;22707438;26;20305;-45
2024/04/20 22:52:15;;;;;;;3.10;0.50;;;;;;;;;;22707891;26;20375;-44
2024/04/20 23:02:17;;;;;;;6.82;0.60;;;;;;;;;;22705814;26;20002;-44
2024/04/20 23:12:19;;;;;;;2.00;0.57;;;;;;;;;;22707497;26;20002;-44
2024/04/20 23:22:21;;;;;;;2.17;0.52;;;;;;;;;;22696828;26;20002;-44
2024/04/20 23:32:22;;;;;;;2.10;0.60;;;;;;;;;;22708970;26;20491;-44
2024/04/20 23:42:25;;;;;;;6.05;0.90;;;;;;;;;;22708597;26;20352;-45
2024/04/20 23:52:27;;;;;;;1.20;0.40;;;;;;;;;;22708247;26;20006;-46
